Oso, Washington
Current Conditions -  °F | °C
As of 12:55 PM on Tuesday 21 Oct 2014 (Local Time) from KAWO Reporting Station
Overcast Overcast  
Wind Chill: 61°   Ceiling: 11000
Heat Index: 61°   Visibility: 10mi
Dew Point: 50°   Wind: 15mph
Humidity: 68%   Direction: 150°SSE
Pressure: 29.91"   Gusts: NA
Location:  48.2067°N, 121.947°W
Report Text: KAWO 211955Z AUTO 15013KT 10SM SCT036 SCT080 OVC110 16/10 A2991 RMK AO1
Loading
Personal Weather Stations






























Interactive Weather Map
Tropical Storm Tracking
New forecast layout! Learn more

10-Day Weather Forecast

Advertisements
Track Severe Weather on mobile